• Join FlightAware (Why Join?)
  • Login
  • US Flag 
07:46AM EDT


 

Airport Tracker/Info


-or-


 

Live Flight TrackerFlight Track Log ✈ ASQ5941 ✈ 08-Jul-2013 ✈ KORD - KAVP

Flight Track Log - Related Links

Times and Time Zones

All times are in EDT time to prevent confusion due to time zone crossing. See the ASQ5941 flight status page for this flight to view local times or setup timezone preferences in your user account.

Time Position Orientation Groundspeed Altitude Reporting Facility
EDT Latitude Longitude Course Direction KTS MPH feet Rate Location/Type
03:47PM 42.0167 -87.9500 26° Northeast 181 208 2,100  Level Chicago TRACON
03:48PM 42.0667 -87.9167 26° Northeast 233 268 3,900 1,500 Climbing Chicago TRACON
03:49PM 42.0994 -87.7981 70° East 271 312 5,700 1,500 Climbing Chicago Center
03:50PM 42.1008 -87.6842 89° East 300 345 7,600 1,740 Climbing Chicago Center
03:51PM 42.1039 -87.5711 88° East 303 349 9,400 1,560 Climbing Chicago Center
03:52PM 42.1064 -87.4544 88° East 311 358 10,900 1,260 Climbing Chicago Center
03:53PM 42.1083 -87.3300 89° East 326 375 12,100 1,200 Climbing Chicago Center
03:54PM 42.1111 -87.1719 89° East 350 403 13,400 1,140 Climbing Chicago Center
03:55PM 42.1136 -87.0350 89° East 365 420 14,500 960 Climbing Chicago Center
03:57PM 42.1178 -86.8950 88° East 373 429 15,500 960 Climbing Chicago Center
03:58PM 42.1233 -86.7578 87° East 370 426 16,600 1,020 Climbing Chicago Center
03:59PM 42.1292 -86.6089 87° East 383 441 17,700 960 Climbing Chicago Center
04:00PM 42.1336 -86.4661 88° East 383 441 18,600 960 Climbing Chicago Center
04:01PM 42.1381 -86.3247 88° East 380 437 19,700 1,080 Climbing Chicago Center
04:02PM 42.1436 -86.1525 87° East 383 441 20,900 1,080 Climbing Chicago Center
04:03PM 42.1436 -86.0108 90° East 381 438 22,000 960 Climbing Chicago Center
04:04PM 42.1417 -85.8786 91° East 383 441 22,900 900 Climbing Chicago Center
04:05PM 42.1408 -85.7364 90° East 384 442 23,900 960 Climbing Chicago Center
04:06PM 42.1394 -85.5639 91° East 382 440 25,000 480 Climbing Chicago Center
04:07PM 42.1372 -85.4169 91° East 399 459 25,000  Level Chicago Center
04:08PM 42.1369 -85.2594 90° East 420 483 25,000  Level Chicago Center
04:09PM 42.1339 -85.0964 91° East 434 499 25,000  Level Chicago Center
04:10PM 42.1317 -84.9311 91° East 442 509 25,000  Level Chicago Center
04:11PM 42.1283 -84.7297 91° East 449 517 25,000  Level Chicago Center
04:12PM 42.1247 -84.5606 92° East 454 522 25,000  Level Chicago Center
04:13PM 42.1275 -84.3906 89° East 456 525 25,000  Level Chicago Center
04:14PM 42.0928 -84.2236 106° East 469 540 25,000  Level Chicago Center
04:15PM 42.0392 -84.0447 112° Southeast 458 527 25,000  Level Cleveland Center
04:16PM 41.9961 -83.8775 109° East 463 533 25,000  Level Cleveland Center
04:17PM 41.9464 -83.7156 112° Southeast 463 533 25,000  Level Cleveland Center
04:18PM 41.8900 -83.5594 116° Southeast 463 533 25,000  Level Cleveland Center
04:19PM 41.8436 -83.4122 113° Southeast 468 539 25,000  Level Cleveland Center
04:20PM 41.7914 -83.2514 113° Southeast 468 539 25,000  Level Cleveland Center
04:21PM 41.7597 -83.0772 104° East 468 539 25,000  Level Cleveland Center
04:22PM 41.7258 -82.9092 105° East 468 539 25,000  Level Cleveland Center
04:23PM 41.6917 -82.7381 105° East 468 539 25,000  Level Cleveland Center
04:24PM 41.6614 -82.5647 103° East 468 539 25,000  Level Cleveland Center
04:25PM 41.6394 -82.3725 99° East 473 544 25,000  Level Cleveland Center
04:26PM 41.6464 -82.1975 87° East 466 536 25,000  Level Cleveland Center
04:27PM 41.6592 -82.0256 84° East 460 529 25,000  Level Cleveland Center
04:28PM 41.6717 -81.8508 84° East 466 536 25,000  Level Cleveland Center
04:29PM 41.6817 -81.6786 85° East 460 529 25,000  Level Cleveland Center
04:30PM 41.6933 -81.5231 84° East 460 529 25,000  Level Cleveland Center
04:31PM 41.7031 -81.3536 86° East 460 529 25,000  Level Cleveland Center
04:32PM 41.7125 -81.1811 86° East 460 529 25,000  Level Cleveland Center
04:33PM 41.7236 -81.0089 85° East 460 529 25,000  Level Cleveland Center
04:34PM 41.7325 -80.8197 86° East 460 529 25,000  Level Cleveland Center
04:35PM 41.7453 -80.6472 84° East 465 535 25,000  Level Cleveland Center
04:36PM 41.7536 -80.4719 86° East 460 529 25,000  Level Cleveland Center
04:37PM 41.7617 -80.2992 86° East 465 535 25,000  Level Cleveland Center
04:38PM 41.7714 -80.1294 86° East 458 527 25,000  Level Cleveland Center
04:39PM 41.7789 -79.9567 87° East 458 527 25,000  Level Cleveland Center
04:40PM 41.7906 -79.7839 85° East 458 527 25,000  Level Cleveland Center
04:41PM 41.7936 -79.6333 88° East 458 527 25,000  Level Cleveland Center
04:42PM 41.8044 -79.4661 85° East 458 527 25,000  Level Cleveland Center
04:43PM 41.8111 -79.2961 87° East 458 527 25,000  Level Cleveland Center
04:44PM 41.8172 -79.1067 87° East 458 527 25,000  Level Cleveland Center
04:45PM 41.8272 -78.9336 86° East 458 527 25,000  Level Cleveland Center
04:46PM 41.8311 -78.7800 88° East 458 527 25,000  Level Cleveland Center
04:47PM 41.8264 -78.6075 92° East 458 527 25,000  Level Cleveland Center
04:48PM 41.8086 -78.4353 98° East 458 527 25,000  Level Cleveland Center
04:49PM 41.7928 -78.2631 97° East 463 533 25,000 -600 Level Cleveland Center
04:51PM 41.7608 -77.9789 98° East 479 551 23,500 -780 Descending New York Center
04:52PM 41.7583 -77.8144 91° East 463 533 23,000 -300 Descending New York Center
04:53PM 41.7536 -77.6469 92° East 463 533 23,000  Level New York Center
04:54PM 41.7444 -77.4794 94° East 457 526 23,000  Level New York Center
04:55PM 41.7350 -77.3114 94° East 452 520 23,000 -900 Level New York Center
04:56PM 41.7261 -77.1300 94° East 447 514 21,300 -1,860 Descending New York Center
04:57PM 41.7156 -76.9761 95° East 436 502 19,300 -2,160 Descending New York Center
04:58PM 41.6919 -76.8239 102° East 423 487 17,100 -2,340 Descending New York Center
04:59PM 41.6653 -76.6936 105° East 411 473 14,700 -2,580 Descending New York Center
05:00PM 41.6372 -76.5469 104° East 396 456 11,900 -2,160 Descending New York Center
05:01PM 41.6100 -76.4169 106° East 368 423 10,400 -1,200 Descending New York Center
05:02PM 41.5881 -76.3069 105° East 332 382 9,600 -1,020 Descending New York Center
05:03PM 41.5692 -76.2194 106° East 290 334 8,400 -1,380 Descending New York Center
05:04PM 41.5550 -76.1211 101° East 272 313 6,900 -1,620 Descending New York Center
05:05PM 41.5433 -76.0122 98° East 265 305 5,200 -1,380 Descending New York Center
05:06PM 41.5350 -75.9117 96° East 265 305 4,200 -600 Descending New York Center
05:07PM 41.5247 -75.8139 98° East 271 312 4,000 -240 Descending New York Center
05:08PM 41.4969 -75.7314 114° Southeast 248 285 3,800 -540 Descending New York Center
05:09PM 41.4472 -75.6781 141° Southeast 228 262 3,000 -840 Descending New York Center
05:10PM 41.3953 -75.6742 177° South 188 216 2,200 -840 Descending New York Center